sensor_id;sensor_type;location;lat;lon;timestamp;P1;durP1;ratioP1;P2;durP2;ratioP2
8317;SDS011;4196;48.926;8.964;2023-02-22T00:02:20;12.57;;;6.63;;
8317;SDS011;4196;48.926;8.964;2023-02-22T00:05:14;13.13;;;7.03;;
8317;SDS011;4196;48.926;8.964;2023-02-22T00:08:05;12.73;;;6.30;;
8317;SDS011;4196;48.926;8.964;2023-02-22T00:10:57;14.97;;;6.40;;
8317;SDS011;4196;48.926;8.964;2023-02-22T00:13:48;10.43;;;6.23;;
8317;SDS011;4196;48.926;8.964;2023-02-22T00:16:35;12.77;;;6.53;;
8317;SDS011;4196;48.926;8.964;2023-02-22T00:19:22;10.10;;;5.67;;
8317;SDS011;4196;48.926;8.964;2023-02-22T00:22:08;10.80;;;6.43;;
8317;SDS011;4196;48.926;8.964;2023-02-22T00:24:55;13.10;;;7.00;;
8317;SDS011;4196;48.926;8.964;2023-02-22T00:27:42;13.03;;;6.93;;
8317;SDS011;4196;48.926;8.964;2023-02-22T00:30:29;11.10;;;6.33;;
8317;SDS011;4196;48.926;8.964;2023-02-22T00:33:17;9.93;;;5.93;;
8317;SDS011;4196;48.926;8.964;2023-02-22T00:36:03;14.30;;;6.67;;
8317;SDS011;4196;48.926;8.964;2023-02-22T00:38:50;8.63;;;5.87;;
8317;SDS011;4196;48.926;8.964;2023-02-22T00:41:36;8.43;;;5.30;;
8317;SDS011;4196;48.926;8.964;2023-02-22T00:44:23;13.40;;;7.07;;
8317;SDS011;4196;48.926;8.964;2023-02-22T00:47:09;10.83;;;6.20;;
8317;SDS011;4196;48.926;8.964;2023-02-22T00:49:56;13.37;;;6.30;;
8317;SDS011;4196;48.926;8.964;2023-02-22T00:52:43;13.90;;;6.20;;
8317;SDS011;4196;48.926;8.964;2023-02-22T00:55:30;18.43;;;7.53;;
8317;SDS011;4196;48.926;8.964;2023-02-22T00:58:18;17.57;;;7.63;;
8317;SDS011;4196;48.926;8.964;2023-02-22T01:01:05;13.23;;;7.10;;
8317;SDS011;4196;48.926;8.964;2023-02-22T01:03:52;15.00;;;6.30;;
8317;SDS011;4196;48.926;8.964;2023-02-22T01:06:38;14.40;;;6.47;;
8317;SDS011;4196;48.926;8.964;2023-02-22T01:09:25;8.83;;;5.23;;
8317;SDS011;4196;48.926;8.964;2023-02-22T01:12:12;9.57;;;5.63;;
8317;SDS011;4196;48.926;8.964;2023-02-22T01:14:58;8.17;;;5.47;;
8317;SDS011;4196;48.926;8.964;2023-02-22T01:17:45;7.53;;;5.40;;
8317;SDS011;4196;48.926;8.964;2023-02-22T01:20:32;12.93;;;6.20;;
8317;SDS011;4196;48.926;8.964;2023-02-22T01:23:18;13.33;;;6.67;;
8317;SDS011;4196;48.926;8.964;2023-02-22T01:26:06;9.17;;;4.97;;
8317;SDS011;4196;48.926;8.964;2023-02-22T01:28:53;9.27;;;5.90;;
8317;SDS011;4196;48.926;8.964;2023-02-22T01:31:40;6.37;;;4.60;;
8317;SDS011;4196;48.926;8.964;2023-02-22T01:34:30;13.67;;;6.73;;
8317;SDS011;4196;48.926;8.964;2023-02-22T01:37:17;11.63;;;5.87;;
8317;SDS011;4196;48.926;8.964;2023-02-22T01:40:05;7.80;;;5.43;;
8317;SDS011;4196;48.926;8.964;2023-02-22T01:42:55;10.37;;;5.47;;
8317;SDS011;4196;48.926;8.964;2023-02-22T01:45:48;12.27;;;6.53;;
8317;SDS011;4196;48.926;8.964;2023-02-22T01:48:40;9.87;;;6.33;;
8317;SDS011;4196;48.926;8.964;2023-02-22T01:51:30;10.53;;;6.03;;
8317;SDS011;4196;48.926;8.964;2023-02-22T01:54:26;11.30;;;6.93;;
8317;SDS011;4196;48.926;8.964;2023-02-22T02:00:10;13.10;;;6.30;;
8317;SDS011;4196;48.926;8.964;2023-02-22T02:03:03;9.40;;;5.67;;
8317;SDS011;4196;48.926;8.964;2023-02-22T02:05:57;15.23;;;7.00;;
8317;SDS011;4196;48.926;8.964;2023-02-22T02:08:51;11.43;;;5.80;;
8317;SDS011;4196;48.926;8.964;2023-02-22T02:11:45;10.67;;;5.77;;
8317;SDS011;4196;48.926;8.964;2023-02-22T02:14:32;10.73;;;7.03;;
8317;SDS011;4196;48.926;8.964;2023-02-22T02:17:19;11.90;;;6.57;;
8317;SDS011;4196;48.926;8.964;2023-02-22T02:20:20;15.47;;;7.20;;
8317;SDS011;4196;48.926;8.964;2023-02-22T02:23:17;11.53;;;7.07;;
8317;SDS011;4196;48.926;8.964;2023-02-22T02:30:05;9.17;;;6.40;;
8317;SDS011;4196;48.926;8.964;2023-02-22T02:36:26;15.80;;;7.63;;
8317;SDS011;4196;48.926;8.964;2023-02-22T02:42:14;12.67;;;7.00;;
8317;SDS011;4196;48.926;8.964;2023-02-22T02:45:08;12.47;;;6.70;;
8317;SDS011;4196;48.926;8.964;2023-02-22T02:47:59;12.07;;;6.63;;
8317;SDS011;4196;48.926;8.964;2023-02-22T02:50:50;15.00;;;7.07;;
8317;SDS011;4196;48.926;8.964;2023-02-22T02:53:40;11.43;;;7.00;;
8317;SDS011;4196;48.926;8.964;2023-02-22T02:56:30;10.50;;;6.77;;
8317;SDS011;4196;48.926;8.964;2023-02-22T03:05:53;11.83;;;6.70;;
8317;SDS011;4196;48.926;8.964;2023-02-22T03:08:58;10.73;;;5.90;;
8317;SDS011;4196;48.926;8.964;2023-02-22T03:15:18;11.27;;;6.73;;
8317;SDS011;4196;48.926;8.964;2023-02-22T03:18:28;10.23;;;5.43;;
8317;SDS011;4196;48.926;8.964;2023-02-22T03:24:17;12.23;;;7.17;;
8317;SDS011;4196;48.926;8.964;2023-02-22T03:27:19;10.07;;;6.57;;
8317;SDS011;4196;48.926;8.964;2023-02-22T03:30:23;13.50;;;7.77;;
8317;SDS011;4196;48.926;8.964;2023-02-22T03:33:14;19.30;;;7.93;;
8317;SDS011;4196;48.926;8.964;2023-02-22T03:36:15;9.73;;;6.00;;
8317;SDS011;4196;48.926;8.964;2023-02-22T03:39:08;10.63;;;7.30;;
8317;SDS011;4196;48.926;8.964;2023-02-22T03:42:06;12.37;;;7.33;;
8317;SDS011;4196;48.926;8.964;2023-02-22T03:44:58;18.77;;;6.47;;
8317;SDS011;4196;48.926;8.964;2023-02-22T03:47:52;14.27;;;6.33;;
8317;SDS011;4196;48.926;8.964;2023-02-22T03:50:56;9.30;;;5.43;;
8317;SDS011;4196;48.926;8.964;2023-02-22T03:53:44;17.33;;;6.97;;
8317;SDS011;4196;48.926;8.964;2023-02-22T03:56:32;15.53;;;7.47;;
8317;SDS011;4196;48.926;8.964;2023-02-22T03:59:22;12.70;;;6.63;;
8317;SDS011;4196;48.926;8.964;2023-02-22T04:02:12;11.00;;;6.73;;
8317;SDS011;4196;48.926;8.964;2023-02-22T04:04:59;13.83;;;7.13;;
8317;SDS011;4196;48.926;8.964;2023-02-22T04:07:46;11.43;;;6.37;;
8317;SDS011;4196;48.926;8.964;2023-02-22T04:10:33;11.50;;;6.23;;
8317;SDS011;4196;48.926;8.964;2023-02-22T04:13:22;12.67;;;7.70;;
8317;SDS011;4196;48.926;8.964;2023-02-22T04:16:12;13.87;;;7.93;;
8317;SDS011;4196;48.926;8.964;2023-02-22T04:18:58;14.23;;;7.33;;
8317;SDS011;4196;48.926;8.964;2023-02-22T04:21:45;13.80;;;6.87;;
8317;SDS011;4196;48.926;8.964;2023-02-22T04:24:38;12.97;;;6.77;;
8317;SDS011;4196;48.926;8.964;2023-02-22T04:27:25;15.17;;;7.33;;
8317;SDS011;4196;48.926;8.964;2023-02-22T04:30:16;10.40;;;6.80;;
8317;SDS011;4196;48.926;8.964;2023-02-22T04:33:06;15.37;;;7.37;;
8317;SDS011;4196;48.926;8.964;2023-02-22T04:35:53;10.73;;;6.90;;
8317;SDS011;4196;48.926;8.964;2023-02-22T04:38:43;14.10;;;8.07;;
8317;SDS011;4196;48.926;8.964;2023-02-22T04:41:30;12.80;;;7.50;;
8317;SDS011;4196;48.926;8.964;2023-02-22T04:44:16;9.70;;;6.10;;
8317;SDS011;4196;48.926;8.964;2023-02-22T04:47:02;13.00;;;6.87;;
8317;SDS011;4196;48.926;8.964;2023-02-22T04:49:49;8.27;;;5.00;;
8317;SDS011;4196;48.926;8.964;2023-02-22T04:52:37;9.23;;;4.93;;
8317;SDS011;4196;48.926;8.964;2023-02-22T04:55:24;7.30;;;5.10;;
8317;SDS011;4196;48.926;8.964;2023-02-22T04:58:10;8.37;;;4.67;;
8317;SDS011;4196;48.926;8.964;2023-02-22T05:00:57;9.50;;;4.50;;
8317;SDS011;4196;48.926;8.964;2023-02-22T05:03:47;9.17;;;5.70;;
8317;SDS011;4196;48.926;8.964;2023-02-22T05:06:33;7.30;;;5.37;;
8317;SDS011;4196;48.926;8.964;2023-02-22T05:09:20;7.37;;;4.90;;
8317;SDS011;4196;48.926;8.964;2023-02-22T05:12:06;6.60;;;5.90;;
8317;SDS011;4196;48.926;8.964;2023-02-22T05:14:52;10.60;;;6.07;;
8317;SDS011;4196;48.926;8.964;2023-02-22T05:17:39;9.97;;;6.67;;
8317;SDS011;4196;48.926;8.964;2023-02-22T05:23:14;9.67;;;6.27;;
8317;SDS011;4196;48.926;8.964;2023-02-22T05:26:01;17.10;;;6.17;;
8317;SDS011;4196;48.926;8.964;2023-02-22T05:28:47;10.97;;;6.13;;
8317;SDS011;4196;48.926;8.964;2023-02-22T05:31:33;10.23;;;6.37;;
8317;SDS011;4196;48.926;8.964;2023-02-22T05:34:20;9.67;;;5.97;;
8317;SDS011;4196;48.926;8.964;2023-02-22T05:37:06;10.03;;;6.40;;
8317;SDS011;4196;48.926;8.964;2023-02-22T05:39:53;12.60;;;6.83;;
8317;SDS011;4196;48.926;8.964;2023-02-22T05:42:40;11.57;;;7.70;;
8317;SDS011;4196;48.926;8.964;2023-02-22T05:45:27;15.87;;;8.93;;
8317;SDS011;4196;48.926;8.964;2023-02-22T05:48:13;15.17;;;9.07;;
8317;SDS011;4196;48.926;8.964;2023-02-22T05:51:00;10.37;;;6.93;;
8317;SDS011;4196;48.926;8.964;2023-02-22T05:53:46;10.43;;;6.30;;
8317;SDS011;4196;48.926;8.964;2023-02-22T05:56:33;13.10;;;6.50;;
8317;SDS011;4196;48.926;8.964;2023-02-22T05:59:19;10.03;;;6.57;;
8317;SDS011;4196;48.926;8.964;2023-02-22T06:02:06;9.27;;;5.77;;
8317;SDS011;4196;48.926;8.964;2023-02-22T06:04:53;15.57;;;6.57;;
8317;SDS011;4196;48.926;8.964;2023-02-22T06:07:39;11.70;;;7.20;;
8317;SDS011;4196;48.926;8.964;2023-02-22T06:10:26;20.43;;;11.27;;
8317;SDS011;4196;48.926;8.964;2023-02-22T06:13:12;16.00;;;8.97;;
8317;SDS011;4196;48.926;8.964;2023-02-22T06:15:59;14.60;;;10.03;;
8317;SDS011;4196;48.926;8.964;2023-02-22T06:18:45;15.27;;;8.43;;
8317;SDS011;4196;48.926;8.964;2023-02-22T06:21:32;14.73;;;8.80;;
8317;SDS011;4196;48.926;8.964;2023-02-22T06:24:19;13.97;;;8.57;;
8317;SDS011;4196;48.926;8.964;2023-02-22T06:27:05;14.23;;;9.43;;
8317;SDS011;4196;48.926;8.964;2023-02-22T06:29:53;20.77;;;10.30;;
8317;SDS011;4196;48.926;8.964;2023-02-22T06:32:39;11.83;;;7.93;;
8317;SDS011;4196;48.926;8.964;2023-02-22T06:35:25;13.63;;;8.17;;
8317;SDS011;4196;48.926;8.964;2023-02-22T06:38:19;15.60;;;8.73;;
8317;SDS011;4196;48.926;8.964;2023-02-22T06:41:07;14.87;;;6.83;;
8317;SDS011;4196;48.926;8.964;2023-02-22T06:43:54;12.87;;;7.40;;
8317;SDS011;4196;48.926;8.964;2023-02-22T06:46:45;13.43;;;6.37;;
8317;SDS011;4196;48.926;8.964;2023-02-22T06:49:33;11.43;;;6.90;;
8317;SDS011;4196;48.926;8.964;2023-02-22T06:52:19;11.63;;;6.17;;
8317;SDS011;4196;48.926;8.964;2023-02-22T06:55:06;27.63;;;7.00;;
8317;SDS011;4196;48.926;8.964;2023-02-22T06:57:52;14.53;;;7.27;;
8317;SDS011;4196;48.926;8.964;2023-02-22T07:00:38;12.63;;;6.67;;
8317;SDS011;4196;48.926;8.964;2023-02-22T07:03:25;23.60;;;9.63;;
8317;SDS011;4196;48.926;8.964;2023-02-22T07:06:11;21.33;;;8.33;;
8317;SDS011;4196;48.926;8.964;2023-02-22T07:08:58;24.90;;;11.20;;
8317;SDS011;4196;48.926;8.964;2023-02-22T07:11:44;19.43;;;9.10;;
8317;SDS011;4196;48.926;8.964;2023-02-22T07:14:30;16.47;;;6.60;;
8317;SDS011;4196;48.926;8.964;2023-02-22T07:17:17;18.20;;;7.10;;
8317;SDS011;4196;48.926;8.964;2023-02-22T07:20:03;16.13;;;7.60;;
8317;SDS011;4196;48.926;8.964;2023-02-22T07:22:50;20.67;;;7.87;;
8317;SDS011;4196;48.926;8.964;2023-02-22T07:25:37;16.40;;;6.40;;
8317;SDS011;4196;48.926;8.964;2023-02-22T07:28:23;35.90;;;8.77;;
8317;SDS011;4196;48.926;8.964;2023-02-22T07:31:10;22.67;;;8.30;;
8317;SDS011;4196;48.926;8.964;2023-02-22T07:33:56;13.60;;;7.80;;
8317;SDS011;4196;48.926;8.964;2023-02-22T07:36:42;16.80;;;6.57;;
8317;SDS011;4196;48.926;8.964;2023-02-22T07:39:29;19.03;;;7.07;;
8317;SDS011;4196;48.926;8.964;2023-02-22T07:42:16;15.33;;;6.67;;
8317;SDS011;4196;48.926;8.964;2023-02-22T07:45:04;14.40;;;6.80;;
8317;SDS011;4196;48.926;8.964;2023-02-22T07:47:51;19.27;;;7.27;;
8317;SDS011;4196;48.926;8.964;2023-02-22T07:50:37;10.77;;;6.57;;
8317;SDS011;4196;48.926;8.964;2023-02-22T07:53:25;17.40;;;9.30;;
8317;SDS011;4196;48.926;8.964;2023-02-22T07:56:18;15.23;;;6.53;;
8317;SDS011;4196;48.926;8.964;2023-02-22T07:59:04;15.30;;;5.23;;
8317;SDS011;4196;48.926;8.964;2023-02-22T08:01:50;17.60;;;6.57;;
8317;SDS011;4196;48.926;8.964;2023-02-22T08:04:36;14.87;;;6.63;;
8317;SDS011;4196;48.926;8.964;2023-02-22T08:07:24;14.10;;;6.97;;
8317;SDS011;4196;48.926;8.964;2023-02-22T08:10:12;11.23;;;6.30;;
8317;SDS011;4196;48.926;8.964;2023-02-22T08:12:59;12.73;;;5.73;;
8317;SDS011;4196;48.926;8.964;2023-02-22T08:15:46;12.90;;;5.77;;
8317;SDS011;4196;48.926;8.964;2023-02-22T08:18:34;11.03;;;5.30;;
8317;SDS011;4196;48.926;8.964;2023-02-22T08:21:23;17.70;;;6.43;;
8317;SDS011;4196;48.926;8.964;2023-02-22T08:24:09;11.87;;;6.30;;
8317;SDS011;4196;48.926;8.964;2023-02-22T08:26:56;12.00;;;6.03;;
8317;SDS011;4196;48.926;8.964;2023-02-22T08:29:42;8.30;;;5.70;;
8317;SDS011;4196;48.926;8.964;2023-02-22T08:32:29;8.10;;;5.47;;
8317;SDS011;4196;48.926;8.964;2023-02-22T08:35:18;16.33;;;6.90;;
8317;SDS011;4196;48.926;8.964;2023-02-22T08:38:05;10.43;;;6.13;;
8317;SDS011;4196;48.926;8.964;2023-02-22T08:40:53;10.03;;;5.57;;
8317;SDS011;4196;48.926;8.964;2023-02-22T08:43:39;7.30;;;5.70;;
8317;SDS011;4196;48.926;8.964;2023-02-22T08:46:26;12.07;;;7.10;;
8317;SDS011;4196;48.926;8.964;2023-02-22T08:49:12;9.70;;;5.60;;
8317;SDS011;4196;48.926;8.964;2023-02-22T08:51:59;11.53;;;7.50;;
8317;SDS011;4196;48.926;8.964;2023-02-22T08:54:46;9.37;;;5.90;;
8317;SDS011;4196;48.926;8.964;2023-02-22T08:57:33;11.37;;;6.10;;
8317;SDS011;4196;48.926;8.964;2023-02-22T09:00:20;17.30;;;7.73;;
8317;SDS011;4196;48.926;8.964;2023-02-22T09:03:10;11.17;;;6.57;;
8317;SDS011;4196;48.926;8.964;2023-02-22T09:05:59;8.93;;;6.13;;
8317;SDS011;4196;48.926;8.964;2023-02-22T09:08:46;13.07;;;6.33;;
8317;SDS011;4196;48.926;8.964;2023-02-22T09:11:32;12.30;;;6.17;;
8317;SDS011;4196;48.926;8.964;2023-02-22T09:14:18;11.53;;;6.30;;
8317;SDS011;4196;48.926;8.964;2023-02-22T09:17:05;8.50;;;5.57;;
8317;SDS011;4196;48.926;8.964;2023-02-22T09:19:51;10.83;;;5.43;;
8317;SDS011;4196;48.926;8.964;2023-02-22T09:22:38;12.93;;;6.30;;
8317;SDS011;4196;48.926;8.964;2023-02-22T09:25:25;8.23;;;5.47;;
8317;SDS011;4196;48.926;8.964;2023-02-22T09:28:12;6.80;;;4.60;;
8317;SDS011;4196;48.926;8.964;2023-02-22T09:30:58;9.80;;;6.00;;
8317;SDS011;4196;48.926;8.964;2023-02-22T09:33:44;7.57;;;5.17;;
8317;SDS011;4196;48.926;8.964;2023-02-22T09:36:32;12.10;;;5.23;;
8317;SDS011;4196;48.926;8.964;2023-02-22T09:39:19;10.30;;;5.07;;
8317;SDS011;4196;48.926;8.964;2023-02-22T09:45:22;8.57;;;4.70;;
8317;SDS011;4196;48.926;8.964;2023-02-22T09:48:13;7.27;;;5.00;;
8317;SDS011;4196;48.926;8.964;2023-02-22T09:51:08;8.57;;;5.03;;
8317;SDS011;4196;48.926;8.964;2023-02-22T09:54:01;7.67;;;5.50;;
8317;SDS011;4196;48.926;8.964;2023-02-22T09:56:50;8.73;;;4.87;;
8317;SDS011;4196;48.926;8.964;2023-02-22T10:00:26;8.23;;;4.90;;
8317;SDS011;4196;48.926;8.964;2023-02-22T10:06:11;9.43;;;5.27;;
8317;SDS011;4196;48.926;8.964;2023-02-22T10:09:01;10.70;;;5.33;;
8317;SDS011;4196;48.926;8.964;2023-02-22T10:12:28;9.97;;;6.10;;
8317;SDS011;4196;48.926;8.964;2023-02-22T10:25:04;6.63;;;4.50;;
8317;SDS011;4196;48.926;8.964;2023-02-22T10:27:58;7.87;;;5.33;;
8317;SDS011;4196;48.926;8.964;2023-02-22T10:30:55;13.53;;;5.53;;
8317;SDS011;4196;48.926;8.964;2023-02-22T10:33:47;11.03;;;5.00;;
8317;SDS011;4196;48.926;8.964;2023-02-22T10:36:37;10.17;;;5.27;;
8317;SDS011;4196;48.926;8.964;2023-02-22T10:39:26;10.70;;;5.73;;
8317;SDS011;4196;48.926;8.964;2023-02-22T10:42:16;6.70;;;4.33;;
8317;SDS011;4196;48.926;8.964;2023-02-22T10:45:02;8.00;;;5.07;;
8317;SDS011;4196;48.926;8.964;2023-02-22T10:47:50;8.63;;;4.97;;
8317;SDS011;4196;48.926;8.964;2023-02-22T10:50:42;8.37;;;5.03;;
8317;SDS011;4196;48.926;8.964;2023-02-22T10:53:30;7.70;;;4.77;;
8317;SDS011;4196;48.926;8.964;2023-02-22T10:56:20;6.23;;;4.63;;
8317;SDS011;4196;48.926;8.964;2023-02-22T10:59:09;6.70;;;4.70;;
8317;SDS011;4196;48.926;8.964;2023-02-22T11:01:55;11.73;;;5.00;;
8317;SDS011;4196;48.926;8.964;2023-02-22T11:04:52;8.77;;;5.23;;
8317;SDS011;4196;48.926;8.964;2023-02-22T11:07:41;8.53;;;5.20;;
8317;SDS011;4196;48.926;8.964;2023-02-22T11:10:31;7.83;;;4.97;;
8317;SDS011;4196;48.926;8.964;2023-02-22T11:13:30;8.93;;;4.50;;
8317;SDS011;4196;48.926;8.964;2023-02-22T11:16:18;9.03;;;4.80;;
8317;SDS011;4196;48.926;8.964;2023-02-22T11:19:26;9.47;;;5.57;;
8317;SDS011;4196;48.926;8.964;2023-02-22T11:22:25;9.37;;;5.10;;
8317;SDS011;4196;48.926;8.964;2023-02-22T11:25:20;10.13;;;6.00;;
8317;SDS011;4196;48.926;8.964;2023-02-22T11:28:14;16.33;;;5.40;;
8317;SDS011;4196;48.926;8.964;2023-02-22T11:31:21;11.33;;;5.00;;
8317;SDS011;4196;48.926;8.964;2023-02-22T11:37:26;11.40;;;5.27;;
8317;SDS011;4196;48.926;8.964;2023-02-22T11:40:21;11.13;;;5.23;;
8317;SDS011;4196;48.926;8.964;2023-02-22T11:43:18;9.40;;;5.70;;
8317;SDS011;4196;48.926;8.964;2023-02-22T11:51:56;7.70;;;5.30;;
8317;SDS011;4196;48.926;8.964;2023-02-22T12:01:42;11.10;;;5.50;;
8317;SDS011;4196;48.926;8.964;2023-02-22T12:20:46;13.43;;;6.17;;
8317;SDS011;4196;48.926;8.964;2023-02-22T12:26:43;8.97;;;5.47;;
8317;SDS011;4196;48.926;8.964;2023-02-22T12:32:49;12.30;;;5.83;;
8317;SDS011;4196;48.926;8.964;2023-02-22T12:35:39;12.23;;;5.83;;
8317;SDS011;4196;48.926;8.964;2023-02-22T12:38:33;12.33;;;6.20;;
8317;SDS011;4196;48.926;8.964;2023-02-22T12:41:33;12.13;;;6.23;;
8317;SDS011;4196;48.926;8.964;2023-02-22T12:44:29;10.50;;;5.80;;
8317;SDS011;4196;48.926;8.964;2023-02-22T12:47:21;11.40;;;7.13;;
8317;SDS011;4196;48.926;8.964;2023-02-22T12:50:26;14.00;;;6.10;;
8317;SDS011;4196;48.926;8.964;2023-02-22T12:53:20;12.03;;;6.50;;
8317;SDS011;4196;48.926;8.964;2023-02-22T12:56:30;9.43;;;5.83;;
8317;SDS011;4196;48.926;8.964;2023-02-22T12:59:32;10.53;;;6.00;;
8317;SDS011;4196;48.926;8.964;2023-02-22T13:02:27;12.30;;;6.00;;
8317;SDS011;4196;48.926;8.964;2023-02-22T13:05:19;9.67;;;6.13;;
8317;SDS011;4196;48.926;8.964;2023-02-22T13:11:12;10.53;;;6.33;;
8317;SDS011;4196;48.926;8.964;2023-02-22T13:17:43;10.57;;;6.67;;
8317;SDS011;4196;48.926;8.964;2023-02-22T13:23:57;10.87;;;5.73;;
8317;SDS011;4196;48.926;8.964;2023-02-22T13:26:52;9.43;;;5.17;;
8317;SDS011;4196;48.926;8.964;2023-02-22T13:29:45;10.40;;;5.83;;
8317;SDS011;4196;48.926;8.964;2023-02-22T13:35:43;14.93;;;5.80;;
8317;SDS011;4196;48.926;8.964;2023-02-22T13:42:14;10.83;;;5.00;;
8317;SDS011;4196;48.926;8.964;2023-02-22T13:45:23;9.00;;;4.63;;
8317;SDS011;4196;48.926;8.964;2023-02-22T13:54:40;13.63;;;5.40;;
8317;SDS011;4196;48.926;8.964;2023-02-22T13:57:40;10.33;;;5.37;;
8317;SDS011;4196;48.926;8.964;2023-02-22T14:00:53;8.07;;;4.57;;
8317;SDS011;4196;48.926;8.964;2023-02-22T14:03:40;10.00;;;4.87;;
8317;SDS011;4196;48.926;8.964;2023-02-22T14:06:37;10.63;;;5.00;;
8317;SDS011;4196;48.926;8.964;2023-02-22T14:09:44;12.27;;;5.43;;
8317;SDS011;4196;48.926;8.964;2023-02-22T14:12:46;7.40;;;4.57;;
8317;SDS011;4196;48.926;8.964;2023-02-22T14:15:33;9.63;;;5.37;;
8317;SDS011;4196;48.926;8.964;2023-02-22T14:18:20;8.60;;;4.90;;
8317;SDS011;4196;48.926;8.964;2023-02-22T14:21:11;7.57;;;4.73;;
8317;SDS011;4196;48.926;8.964;2023-02-22T14:24:11;9.83;;;5.00;;
8317;SDS011;4196;48.926;8.964;2023-02-22T14:27:00;9.00;;;5.47;;
8317;SDS011;4196;48.926;8.964;2023-02-22T14:29:56;9.97;;;5.10;;
8317;SDS011;4196;48.926;8.964;2023-02-22T14:32:45;12.57;;;5.20;;
8317;SDS011;4196;48.926;8.964;2023-02-22T14:35:36;13.47;;;5.87;;
8317;SDS011;4196;48.926;8.964;2023-02-22T14:38:34;9.10;;;4.80;;
8317;SDS011;4196;48.926;8.964;2023-02-22T14:41:22;9.00;;;4.97;;
8317;SDS011;4196;48.926;8.964;2023-02-22T14:44:12;8.13;;;4.33;;
8317;SDS011;4196;48.926;8.964;2023-02-22T14:47:05;10.03;;;5.30;;
8317;SDS011;4196;48.926;8.964;2023-02-22T14:50:02;12.90;;;4.80;;
8317;SDS011;4196;48.926;8.964;2023-02-22T14:55:56;12.70;;;5.73;;
8317;SDS011;4196;48.926;8.964;2023-02-22T14:58:48;11.07;;;5.57;;
8317;SDS011;4196;48.926;8.964;2023-02-22T15:01:40;9.70;;;5.10;;
8317;SDS011;4196;48.926;8.964;2023-02-22T15:04:50;9.83;;;5.23;;
8317;SDS011;4196;48.926;8.964;2023-02-22T15:07:38;7.80;;;5.40;;
8317;SDS011;4196;48.926;8.964;2023-02-22T15:16:03;12.60;;;6.47;;
8317;SDS011;4196;48.926;8.964;2023-02-22T15:18:54;16.80;;;9.37;;
8317;SDS011;4196;48.926;8.964;2023-02-22T15:21:44;12.57;;;8.37;;
8317;SDS011;4196;48.926;8.964;2023-02-22T15:24:32;12.37;;;6.13;;
8317;SDS011;4196;48.926;8.964;2023-02-22T15:27:20;15.17;;;6.83;;
8317;SDS011;4196;48.926;8.964;2023-02-22T15:30:13;10.43;;;4.67;;
8317;SDS011;4196;48.926;8.964;2023-02-22T15:33:14;9.63;;;5.30;;
8317;SDS011;4196;48.926;8.964;2023-02-22T15:36:16;14.90;;;5.37;;
8317;SDS011;4196;48.926;8.964;2023-02-22T15:39:03;10.13;;;5.53;;
8317;SDS011;4196;48.926;8.964;2023-02-22T15:44:54;14.07;;;9.10;;
8317;SDS011;4196;48.926;8.964;2023-02-22T15:47:42;13.13;;;7.93;;
8317;SDS011;4196;48.926;8.964;2023-02-22T15:50:32;17.57;;;7.57;;
8317;SDS011;4196;48.926;8.964;2023-02-22T15:56:25;9.20;;;5.67;;
8317;SDS011;4196;48.926;8.964;2023-02-22T15:59:15;9.30;;;5.90;;
8317;SDS011;4196;48.926;8.964;2023-02-22T16:02:17;12.93;;;7.03;;
8317;SDS011;4196;48.926;8.964;2023-02-22T16:05:16;11.33;;;7.40;;
8317;SDS011;4196;48.926;8.964;2023-02-22T16:08:07;10.33;;;6.63;;
8317;SDS011;4196;48.926;8.964;2023-02-22T16:11:01;9.43;;;5.97;;
8317;SDS011;4196;48.926;8.964;2023-02-22T16:13:51;10.30;;;6.70;;
8317;SDS011;4196;48.926;8.964;2023-02-22T16:16:39;11.23;;;5.77;;
8317;SDS011;4196;48.926;8.964;2023-02-22T16:22:31;17.07;;;7.03;;
8317;SDS011;4196;48.926;8.964;2023-02-22T16:28:24;10.77;;;7.07;;
8317;SDS011;4196;48.926;8.964;2023-02-22T16:31:22;11.13;;;7.10;;
8317;SDS011;4196;48.926;8.964;2023-02-22T16:34:19;12.77;;;6.70;;
8317;SDS011;4196;48.926;8.964;2023-02-22T16:37:05;10.37;;;7.07;;
8317;SDS011;4196;48.926;8.964;2023-02-22T16:40:09;17.97;;;9.67;;
8317;SDS011;4196;48.926;8.964;2023-02-22T16:43:11;23.57;;;11.53;;
8317;SDS011;4196;48.926;8.964;2023-02-22T16:46:00;15.87;;;8.50;;
8317;SDS011;4196;48.926;8.964;2023-02-22T16:48:48;15.33;;;8.70;;
8317;SDS011;4196;48.926;8.964;2023-02-22T16:51:38;34.97;;;19.00;;
8317;SDS011;4196;48.926;8.964;2023-02-22T16:54:29;32.03;;;17.43;;
8317;SDS011;4196;48.926;8.964;2023-02-22T16:57:21;22.20;;;12.13;;
8317;SDS011;4196;48.926;8.964;2023-02-22T17:00:17;17.63;;;7.93;;
8317;SDS011;4196;48.926;8.964;2023-02-22T17:03:17;11.43;;;6.53;;
8317;SDS011;4196;48.926;8.964;2023-02-22T17:06:03;10.40;;;6.20;;
8317;SDS011;4196;48.926;8.964;2023-02-22T17:08:50;14.03;;;8.00;;
8317;SDS011;4196;48.926;8.964;2023-02-22T17:11:37;15.87;;;8.80;;
8317;SDS011;4196;48.926;8.964;2023-02-22T17:14:25;14.60;;;8.27;;
8317;SDS011;4196;48.926;8.964;2023-02-22T17:17:16;19.27;;;8.83;;
8317;SDS011;4196;48.926;8.964;2023-02-22T17:20:02;17.03;;;9.03;;
8317;SDS011;4196;48.926;8.964;2023-02-22T17:22:56;20.53;;;12.10;;
8317;SDS011;4196;48.926;8.964;2023-02-22T17:25:49;18.20;;;10.20;;
8317;SDS011;4196;48.926;8.964;2023-02-22T17:28:40;16.90;;;9.87;;
8317;SDS011;4196;48.926;8.964;2023-02-22T17:31:28;15.23;;;8.83;;
8317;SDS011;4196;48.926;8.964;2023-02-22T17:34:16;18.50;;;11.03;;
8317;SDS011;4196;48.926;8.964;2023-02-22T17:37:03;17.33;;;9.83;;
8317;SDS011;4196;48.926;8.964;2023-02-22T17:39:49;19.27;;;10.60;;
8317;SDS011;4196;48.926;8.964;2023-02-22T17:42:36;20.13;;;10.50;;
8317;SDS011;4196;48.926;8.964;2023-02-22T17:45:22;27.37;;;13.17;;
8317;SDS011;4196;48.926;8.964;2023-02-22T17:48:10;29.53;;;12.67;;
8317;SDS011;4196;48.926;8.964;2023-02-22T17:50:57;27.20;;;12.63;;
8317;SDS011;4196;48.926;8.964;2023-02-22T17:53:43;23.67;;;10.87;;
8317;SDS011;4196;48.926;8.964;2023-02-22T17:56:30;16.67;;;9.73;;
8317;SDS011;4196;48.926;8.964;2023-02-22T17:59:16;19.30;;;9.80;;
8317;SDS011;4196;48.926;8.964;2023-02-22T18:02:03;16.50;;;7.63;;
8317;SDS011;4196;48.926;8.964;2023-02-22T18:04:49;14.10;;;7.10;;
8317;SDS011;4196;48.926;8.964;2023-02-22T18:07:35;17.00;;;8.20;;
8317;SDS011;4196;48.926;8.964;2023-02-22T18:10:22;15.90;;;8.77;;
8317;SDS011;4196;48.926;8.964;2023-02-22T18:13:12;15.43;;;8.77;;
8317;SDS011;4196;48.926;8.964;2023-02-22T18:16:01;15.77;;;9.30;;
8317;SDS011;4196;48.926;8.964;2023-02-22T18:18:50;16.03;;;7.30;;
8317;SDS011;4196;48.926;8.964;2023-02-22T18:21:37;13.60;;;7.70;;
8317;SDS011;4196;48.926;8.964;2023-02-22T18:24:24;16.37;;;7.97;;
8317;SDS011;4196;48.926;8.964;2023-02-22T18:27:11;11.07;;;7.20;;
8317;SDS011;4196;48.926;8.964;2023-02-22T18:29:59;12.60;;;8.70;;
8317;SDS011;4196;48.926;8.964;2023-02-22T18:32:46;11.77;;;7.63;;
8317;SDS011;4196;48.926;8.964;2023-02-22T18:35:32;16.50;;;8.40;;
8317;SDS011;4196;48.926;8.964;2023-02-22T18:38:19;14.73;;;8.50;;
8317;SDS011;4196;48.926;8.964;2023-02-22T18:41:10;18.80;;;8.40;;
8317;SDS011;4196;48.926;8.964;2023-02-22T18:43:58;14.70;;;8.57;;
8317;SDS011;4196;48.926;8.964;2023-02-22T18:46:45;15.03;;;7.57;;
8317;SDS011;4196;48.926;8.964;2023-02-22T18:49:31;20.57;;;8.63;;
8317;SDS011;4196;48.926;8.964;2023-02-22T18:52:18;21.13;;;9.13;;
8317;SDS011;4196;48.926;8.964;2023-02-22T18:55:04;17.30;;;8.77;;
8317;SDS011;4196;48.926;8.964;2023-02-22T18:57:53;20.87;;;10.73;;
8317;SDS011;4196;48.926;8.964;2023-02-22T19:00:40;14.87;;;7.97;;
8317;SDS011;4196;48.926;8.964;2023-02-22T19:03:27;14.13;;;9.10;;
8317;SDS011;4196;48.926;8.964;2023-02-22T19:06:15;14.93;;;8.93;;
8317;SDS011;4196;48.926;8.964;2023-02-22T19:09:03;18.50;;;9.67;;
8317;SDS011;4196;48.926;8.964;2023-02-22T19:11:54;15.57;;;8.23;;
8317;SDS011;4196;48.926;8.964;2023-02-22T19:14:40;16.40;;;9.93;;
8317;SDS011;4196;48.926;8.964;2023-02-22T19:17:28;20.47;;;10.50;;
8317;SDS011;4196;48.926;8.964;2023-02-22T19:20:16;18.50;;;10.37;;
8317;SDS011;4196;48.926;8.964;2023-02-22T19:23:02;18.30;;;11.30;;
8317;SDS011;4196;48.926;8.964;2023-02-22T19:25:48;17.20;;;9.27;;
8317;SDS011;4196;48.926;8.964;2023-02-22T19:28:35;19.70;;;10.37;;
8317;SDS011;4196;48.926;8.964;2023-02-22T19:31:22;20.40;;;9.00;;
8317;SDS011;4196;48.926;8.964;2023-02-22T19:34:11;18.40;;;9.77;;